createdAt,value
2022-10-21T00:00:34.360Z,98281.13
2022-10-21T00:05:36.215Z,98290.06
2022-10-21T00:15:44.876Z,98281.38
2022-10-21T00:20:46.697Z,98281.81
2022-10-21T00:25:48.712Z,98272.44
2022-10-21T00:30:50.531Z,98270.50
2022-10-21T00:36:02.523Z,98256.84
2022-10-21T00:41:04.380Z,98247.13
2022-10-21T00:46:07.939Z,98242.50
2022-10-21T00:51:12.945Z,98253.44
2022-10-21T00:56:24.455Z,98239.47
2022-10-21T01:01:26.414Z,98234.03
2022-10-21T01:06:29.236Z,98197.06
2022-10-21T01:11:35.261Z,98184.53
2022-10-21T01:16:56.063Z,98186.31
2022-10-21T01:22:37.659Z,98177.31
2022-10-21T01:27:39.547Z,98167.22
2022-10-21T01:33:20.945Z,98152.41
2022-10-21T01:38:31.676Z,98152.75
2022-10-21T01:43:50.098Z,98142.59
2022-10-21T01:48:58.178Z,98118.13
2022-10-21T01:54:15.563Z,98112.69
2022-10-21T01:59:19.574Z,98112.28
2022-10-21T02:04:23.294Z,98114.56
2022-10-21T02:09:25.600Z,98105.56
2022-10-21T02:14:39.986Z,98096.25
2022-10-21T02:19:42.406Z,98088.44
2022-10-21T02:25:01.046Z,98079.22
2022-10-21T02:30:03.393Z,98083.81
2022-10-21T02:35:32.211Z,98108.28
2022-10-21T02:40:40.489Z,98089.63
2022-10-21T02:45:42.519Z,98091.97
2022-10-21T02:50:44.443Z,98079.88
2022-10-21T02:55:46.240Z,98093.09
2022-10-21T03:00:48.095Z,98105.56
2022-10-21T03:05:50.344Z,98076.53
2022-10-21T03:10:53.441Z,98067.31
2022-10-21T03:15:55.649Z,98080.53
2022-10-21T03:20:57.460Z,98068.50
2022-10-21T03:25:59.264Z,98070.81
2022-10-21T03:31:01.062Z,98077.09
2022-10-21T03:36:02.959Z,98074.00
2022-10-21T03:41:04.853Z,98055.00
2022-10-21T03:46:06.688Z,98059.25
2022-10-21T03:51:08.596Z,98055.28
2022-10-21T03:56:10.466Z,98055.56
2022-10-21T04:01:13.469Z,98037.53
2022-10-21T04:06:15.431Z,98034.75
2022-10-21T04:11:17.357Z,98039.03
2022-10-21T04:16:21.199Z,98037.81
2022-10-21T04:26:29.763Z,98034.56
2022-10-21T04:31:32.155Z,98011.59
2022-10-21T04:36:34.298Z,98015.72
2022-10-21T04:41:36.255Z,98031.91
2022-10-21T04:46:38.053Z,98013.63
2022-10-21T04:51:39.859Z,97994.50
2022-10-21T04:56:42.377Z,97992.09
2022-10-21T05:01:44.251Z,97988.88
2022-10-21T05:06:46.333Z,97984.66
2022-10-21T05:11:48.156Z,97980.41
2022-10-21T05:16:50.051Z,97984.25
2022-10-21T05:21:51.922Z,97970.66
2022-10-21T05:26:53.801Z,97966.44
2022-10-21T05:31:55.651Z,97953.25
2022-10-21T05:36:57.589Z,97965.94
2022-10-21T05:41:59.515Z,97956.09
2022-10-21T05:47:01.335Z,97973.03
2022-10-21T05:52:03.210Z,97965.16
2022-10-21T05:57:05.031Z,97970.50
2022-10-21T06:02:07.003Z,97958.88
2022-10-21T06:07:09.238Z,97956.53
2022-10-21T06:12:11.038Z,97970.50
2022-10-21T06:17:12.826Z,97949.63
2022-10-21T06:22:15.027Z,97949.69
2022-10-21T06:27:16.892Z,97959.41
2022-10-21T06:32:18.707Z,97974.63
2022-10-21T06:37:20.566Z,97968.53
2022-10-21T06:42:22.353Z,97980.41
2022-10-21T06:47:24.715Z,97980.59
2022-10-21T06:57:33.672Z,98011.00
2022-10-21T07:02:35.832Z,98003.34
2022-10-21T07:07:38.445Z,98006.28
2022-10-21T07:12:40.489Z,98029.41
2022-10-21T07:17:42.441Z,98010.19
2022-10-21T07:22:44.335Z,97995.53
2022-10-21T07:27:48.547Z,97988.66
2022-10-21T07:32:51.015Z,97999.19
2022-10-21T07:37:52.820Z,98003.53
2022-10-21T07:42:55.751Z,97980.69
2022-10-21T07:47:57.632Z,97978.81
2022-10-21T07:53:10.288Z,97974.72
2022-10-21T07:58:14.383Z,97957.31
2022-10-21T08:03:16.190Z,97962.75
2022-10-21T08:08:18.075Z,97974.44
2022-10-21T08:13:20.247Z,97962.03
2022-10-21T08:18:22.213Z,97958.63
2022-10-21T08:23:26.430Z,97951.22
2022-10-21T08:28:30.454Z,97944.97
2022-10-21T08:33:32.395Z,97950.44
2022-10-21T08:38:34.723Z,97934.16
2022-10-21T08:43:39.712Z,97929.53
2022-10-21T08:48:58.643Z,97931.91
2022-10-21T08:54:05.526Z,97927.66
2022-10-21T08:59:33.756Z,97912.47
2022-10-21T09:05:06.943Z,97911.72
2022-10-21T09:10:33.759Z,97911.66
2022-10-21T09:16:06.499Z,97919.06
2022-10-21T09:21:29.623Z,97906.16
2022-10-21T09:26:43.070Z,97903.81
2022-10-21T09:31:48.732Z,97883.94
2022-10-21T09:36:55.024Z,97890.56
2022-10-21T09:42:00.152Z,97885.91
2022-10-21T09:47:20.565Z,97874.56
2022-10-21T09:52:26.175Z,97885.47
2022-10-21T09:57:57.153Z,97878.03
2022-10-21T10:02:59.101Z,97896.75
2022-10-21T10:08:01.256Z,97899.88
2022-10-21T10:13:03.223Z,97900.66
2022-10-21T10:18:18.381Z,97898.72
2022-10-21T10:23:20.197Z,97885.06
2022-10-21T10:28:25.623Z,97885.78
2022-10-21T10:33:31.799Z,97891.22
2022-10-21T10:38:38.042Z,97886.53
2022-10-21T10:43:54.670Z,97884.13
2022-10-21T10:49:04.219Z,97890.31
2022-10-21T10:54:28.400Z,97874.56
2022-10-21T10:59:40.160Z,97874.38
2022-10-21T11:05:12.422Z,97867.56
2022-10-21T11:10:23.056Z,97870.13
2022-10-21T11:15:32.594Z,97881.94
2022-10-21T11:20:53.029Z,97874.78
2022-10-21T11:26:03.517Z,97854.78
2022-10-21T11:31:48.530Z,97853.56
2022-10-21T11:37:29.448Z,97842.25
2022-10-21T11:42:52.048Z,97837.63
2022-10-21T11:48:12.769Z,97833.31
2022-10-21T11:53:14.874Z,97841.59
2022-10-21T11:58:24.651Z,97836.06
2022-10-21T12:03:51.599Z,97842.66
2022-10-21T12:09:02.363Z,97835.19
2022-10-21T12:14:30.185Z,97850.03
2022-10-21T12:19:33.206Z,97859.47
2022-10-21T12:24:40.302Z,97865.34
2022-10-21T12:29:42.948Z,97867.31
2022-10-21T12:34:45.459Z,97853.22
2022-10-21T12:39:50.564Z,97854.88
2022-10-21T12:44:53.187Z,97862.00
2022-10-21T12:50:29.908Z,97866.00
2022-10-21T12:55:39.704Z,97862.97
2022-10-21T13:00:44.555Z,97857.13
2022-10-21T13:05:46.371Z,97874.78
2022-10-21T13:11:03.656Z,97878.06
2022-10-21T13:16:20.747Z,97879.31
2022-10-21T13:21:32.458Z,97871.53
2022-10-21T13:26:40.644Z,97870.38
2022-10-21T13:31:42.955Z,97863.34
2022-10-21T13:36:45.094Z,97884.16
2022-10-21T13:41:47.821Z,97867.09
2022-10-21T13:46:49.627Z,97880.47
2022-10-21T13:51:53.027Z,97875.88
2022-10-21T13:56:54.845Z,97875.53
2022-10-21T14:01:57.983Z,97872.44
2022-10-21T14:07:09.173Z,97880.28
2022-10-21T14:12:43.593Z,97870.97
2022-10-21T14:17:52.342Z,97863.25
2022-10-21T14:22:55.740Z,97849.66
2022-10-21T14:28:00.367Z,97840.69
2022-10-21T14:33:04.797Z,97855.53
2022-10-21T14:38:25.871Z,97872.66
2022-10-21T14:43:35.552Z,97878.91
2022-10-21T14:48:47.809Z,97870.34
2022-10-21T14:54:02.177Z,97869.56
2022-10-21T14:59:18.993Z,97887.88
2022-10-21T15:04:42.614Z,97903.09
2022-10-21T15:10:04.821Z,97919.44
2022-10-21T15:15:48.380Z,97909.22
2022-10-21T15:20:56.219Z,97908.38
2022-10-21T15:26:03.687Z,97877.22
2022-10-21T15:31:15.661Z,97860.00
2022-10-21T15:36:19.250Z,97869.34
2022-10-21T15:41:25.492Z,97867.88
2022-10-21T15:46:29.484Z,97876.06
2022-10-21T15:51:31.305Z,97846.13
2022-10-21T15:56:33.183Z,97840.66
2022-10-21T16:01:35.081Z,97843.78
2022-10-21T16:06:37.007Z,97841.47
2022-10-21T16:11:41.066Z,97858.59
2022-10-21T16:16:47.342Z,97877.84
2022-10-21T16:21:49.169Z,97902.16
2022-10-21T16:26:50.979Z,97896.34
2022-10-21T16:31:53.331Z,97873.75
2022-10-21T16:36:55.133Z,97878.44
2022-10-21T16:41:56.919Z,97879.97
2022-10-21T16:46:58.823Z,97875.66
2022-10-21T16:52:02.241Z,97892.75
2022-10-21T16:57:06.946Z,97887.31
2022-10-21T17:02:18.282Z,97881.81
2022-10-21T17:07:20.098Z,97883.72
2022-10-21T17:12:22.786Z,97877.88
2022-10-21T17:17:24.643Z,97876.38
2022-10-21T17:22:26.547Z,97862.41
2022-10-21T17:27:28.358Z,97875.66
2022-10-21T17:32:30.489Z,97873.28
2022-10-21T17:37:32.315Z,97876.34
2022-10-21T17:42:34.195Z,97879.06
2022-10-21T17:47:37.030Z,97887.63
2022-10-21T17:52:41.377Z,97884.91
2022-10-21T17:57:44.659Z,97890.34
2022-10-21T18:02:46.553Z,97891.16
2022-10-21T18:07:48.375Z,97892.38
2022-10-21T18:12:50.188Z,97879.56
2022-10-21T18:17:52.049Z,97874.16
2022-10-21T18:22:53.996Z,97880.41
2022-10-21T18:27:55.830Z,97867.56
2022-10-21T18:32:58.500Z,97857.84
2022-10-21T18:38:00.455Z,97857.84
2022-10-21T18:43:02.276Z,97862.53
2022-10-21T18:48:04.484Z,97861.75
2022-10-21T18:53:06.321Z,97855.53
2022-10-21T18:58:08.169Z,97849.28
2022-10-21T19:03:09.967Z,97848.50
2022-10-21T19:08:11.790Z,97845.41
2022-10-21T19:13:13.950Z,97843.84
2022-10-21T19:18:15.802Z,97845.38
2022-10-21T19:23:17.604Z,97846.16
2022-10-21T19:28:19.443Z,97853.97
2022-10-21T19:33:21.243Z,97851.59
2022-10-21T19:38:39.738Z,97855.53
2022-10-21T19:43:44.901Z,97859.03
2022-10-21T19:48:48.141Z,97853.56
2022-10-21T19:53:51.253Z,97857.06
2022-10-21T19:58:53.321Z,97855.47
2022-10-21T20:03:55.739Z,97857.41
2022-10-21T20:09:02.671Z,97859.38
2022-10-21T20:14:05.392Z,97875.38
2022-10-21T20:19:07.991Z,97869.50
2022-10-21T20:24:13.847Z,97864.03
2022-10-21T20:29:15.767Z,97869.91
2022-10-21T20:34:17.608Z,97867.16
2022-10-21T20:39:19.406Z,97870.28
2022-10-21T20:44:21.270Z,97868.31
2022-10-21T20:49:23.079Z,97867.50
2022-10-21T20:54:26.056Z,97860.09
2022-10-21T20:59:27.912Z,97873.38
2022-10-21T21:04:29.737Z,97873.72
2022-10-21T21:10:01.038Z,97874.53
2022-10-21T21:14:53.422Z,97874.91
2022-10-21T21:19:55.257Z,97868.66
2022-10-21T21:24:57.121Z,97868.66
2022-10-21T21:29:59.068Z,97866.72
2022-10-21T21:35:03.629Z,97885.88
2022-10-21T21:40:08.600Z,97878.47
2022-10-21T21:45:10.834Z,97885.91
2022-10-21T21:50:12.663Z,97895.63
2022-10-21T21:55:14.515Z,97900.31
2022-10-21T22:00:16.361Z,97880.75
2022-10-21T22:05:18.709Z,97881.91
2022-10-21T22:10:21.331Z,97889.72
2022-10-21T22:15:46.562Z,97869.75
2022-10-21T22:20:45.956Z,97872.44
2022-10-21T22:25:48.968Z,97872.44
2022-10-21T22:31:02.619Z,97873.97
2022-10-21T22:36:06.020Z,97866.09
2022-10-21T22:41:12.172Z,97880.19
2022-10-21T22:51:36.455Z,97873.16
2022-10-21T22:56:38.360Z,97858.31
2022-10-21T23:01:40.189Z,97852.78
2022-10-21T23:06:42.012Z,97859.06
2022-10-21T23:11:44.358Z,97850.47
2022-10-21T23:16:46.184Z,97841.84
2022-10-21T23:21:48.132Z,97838.00
2022-10-21T23:26:49.989Z,97845.78
2022-10-21T23:31:51.797Z,97825.50
2022-10-21T23:36:54.172Z,97825.47
2022-10-21T23:41:56.449Z,97841.97
2022-10-21T23:46:58.685Z,97845.56
2022-10-21T23:52:00.786Z,97862.78
2022-10-21T23:57:02.640Z,97877.22
